Skip Navigation LinksHome page > Weather > Current weather Skip Navigation Links

Current Weather

Ted Stevens Anchorage Intl, Anchorage, Alaska

For information only: do not use for flight planning or navigation.
Latest weather
Observation time Saturday, October 19, 2019 1:53 AM AKDT
Local time Saturday, October 19, 2019 2:18 AM AKDT
Flight conditions Visual Meteorological Conditions
Winds
Wind direction South (170°)
Wind speed 6 mph
Visibility 10 mi.
Sky condition
Ceiling 11,000 ft. broken clouds
Cloud layer broken clouds 11,000 ft.
Temperature 35°F
Dewpoint 33°F
Altimeter 29.42 in.Hg
Derived measurements
Relative humidity 92%
Wind chill 30°F
Density altitude -788 ft.
Sea-level pressure 29.43 in.Hg
Remarks
System requires maintenance.
Automated weather observing station with precipitation discriminator.
METAR PANC 190953Z 17005KT 10SM BKN110 02/01 A2942 RMK AO2 SLP966 T00170006 $

Settings

Location code

InnerDrive.Weather 4.0.6770.0 Release CLR 4.0.30319.42000
Copyright ©2018 Inner Drive Technology. All rights reserved. Portions Copyright ©1986-2018 David Braverman.

Find weather

Site navigation


Skip Navigation Links

Place info

Page info

PayPal - The safer, easier way to pay online!

Return home.

Copyright ©2019 Inner Drive Technology. Purveyors of fine, hand-crafted computer software. Page printed 2019-10-19T10:18:40 UTC.